createdAt,value
2018-12-16T00:01:33.584Z,20.40
2018-12-16T00:04:01.265Z,20.70
2018-12-16T00:06:29.280Z,19.90
2018-12-16T00:08:56.618Z,20.57
2018-12-16T00:11:24.276Z,20.70
2018-12-16T00:13:51.592Z,20.10
2018-12-16T00:16:18.982Z,20.37
2018-12-16T00:18:46.342Z,21.00
2018-12-16T00:21:14.222Z,20.62
2018-12-16T00:23:41.898Z,20.57
2018-12-16T00:26:09.544Z,20.55
2018-12-16T00:28:37.531Z,20.23
2018-12-16T00:31:04.964Z,20.10
2018-12-16T00:33:32.731Z,19.85
2018-12-16T00:36:00.419Z,20.30
2018-12-16T00:38:28.380Z,20.88
2018-12-16T00:40:56.047Z,20.80
2018-12-16T00:43:24.013Z,20.80
2018-12-16T00:45:51.672Z,20.17
2018-12-16T00:48:19.027Z,21.27
2018-12-16T00:50:46.898Z,20.70
2018-12-16T00:53:14.914Z,21.10
2018-12-16T00:55:42.431Z,20.43
2018-12-16T00:58:10.240Z,20.95
2018-12-16T01:00:37.748Z,21.93
2018-12-16T01:03:05.210Z,21.60
2018-12-16T01:05:32.859Z,21.23
2018-12-16T01:08:00.427Z,21.10
2018-12-16T01:10:27.727Z,21.67
2018-12-16T01:12:55.010Z,21.93
2018-12-16T01:15:22.421Z,21.62
2018-12-16T01:17:49.718Z,22.00
2018-12-16T01:20:17.111Z,22.00
2018-12-16T01:22:44.739Z,22.17
2018-12-16T01:25:12.040Z,22.55
2018-12-16T01:27:39.960Z,22.00
2018-12-16T01:30:07.546Z,21.42
2018-12-16T01:32:35.089Z,21.62
2018-12-16T01:35:02.665Z,21.17
2018-12-16T01:37:30.224Z,21.73
2018-12-16T01:39:58.050Z,22.35
2018-12-16T01:42:25.827Z,22.50
2018-12-16T01:44:53.122Z,22.15
2018-12-16T01:47:20.800Z,22.10
2018-12-16T01:49:48.642Z,22.80
2018-12-16T01:52:15.968Z,22.22
2018-12-16T01:54:43.348Z,22.77
2018-12-16T01:57:11.328Z,22.17
2018-12-16T01:59:38.677Z,22.40
2018-12-16T02:02:07.058Z,22.30
2018-12-16T02:04:34.622Z,22.52
2018-12-16T02:07:02.762Z,22.93
2018-12-16T02:09:30.352Z,22.27
2018-12-16T02:11:57.675Z,21.80
2018-12-16T02:14:25.949Z,23.80
2018-12-16T02:16:53.647Z,22.77
2018-12-16T02:19:20.971Z,23.10
2018-12-16T02:21:48.559Z,22.48
2018-12-16T02:24:16.602Z,22.73
2018-12-16T02:26:44.300Z,23.30
2018-12-16T02:29:11.618Z,23.35
2018-12-16T02:31:39.182Z,23.73
2018-12-16T02:34:06.489Z,23.02
2018-12-16T02:36:33.811Z,23.60
2018-12-16T02:39:01.174Z,24.30
2018-12-16T02:41:28.771Z,24.40
2018-12-16T02:43:56.355Z,24.25
2018-12-16T02:46:23.954Z,23.30
2018-12-16T02:48:51.890Z,24.30
2018-12-16T02:51:19.593Z,24.30
2018-12-16T02:53:47.264Z,23.75
2018-12-16T02:56:15.222Z,23.63
2018-12-16T02:58:43.092Z,24.30
2018-12-16T03:01:11.469Z,25.45
2018-12-16T03:03:38.798Z,25.32
2018-12-16T03:06:06.422Z,25.40
2018-12-16T03:08:33.767Z,24.10
2018-12-16T03:11:01.388Z,25.65
2018-12-16T03:13:29.068Z,24.75
2018-12-16T03:15:56.403Z,26.70
2018-12-16T03:18:24.009Z,25.90
2018-12-16T03:20:51.404Z,24.32
2018-12-16T03:23:18.690Z,25.00
2018-12-16T03:25:46.074Z,25.65
2018-12-16T03:28:13.383Z,26.27
2018-12-16T03:30:41.244Z,24.95
2018-12-16T03:33:09.246Z,25.10
2018-12-16T03:35:36.874Z,25.05
2018-12-16T03:38:04.266Z,25.65
2018-12-16T03:40:31.906Z,25.68
2018-12-16T03:42:59.989Z,25.87
2018-12-16T03:45:27.654Z,25.80
2018-12-16T03:47:55.051Z,26.30
2018-12-16T03:50:22.679Z,25.30
2018-12-16T03:52:50.364Z,25.00
2018-12-16T03:55:17.733Z,25.92
2018-12-16T03:57:45.611Z,26.70
2018-12-16T04:00:13.294Z,26.02
2018-12-16T04:02:40.991Z,25.75
2018-12-16T04:05:08.496Z,25.90
2018-12-16T04:07:36.210Z,26.00
2018-12-16T04:10:03.996Z,26.30
2018-12-16T04:12:31.630Z,26.68
2018-12-16T04:14:58.947Z,26.20
2018-12-16T04:17:26.547Z,24.95
2018-12-16T04:19:54.425Z,26.40
2018-12-16T04:22:22.055Z,26.50
2018-12-16T04:24:50.055Z,27.22
2018-12-16T04:27:17.712Z,25.80
2018-12-16T04:29:45.389Z,25.77
2018-12-16T04:32:12.922Z,26.10
2018-12-16T04:34:40.554Z,26.50
2018-12-16T04:37:07.915Z,25.70
2018-12-16T04:39:35.250Z,25.52
2018-12-16T04:42:02.956Z,26.02
2018-12-16T04:44:30.583Z,26.00
2018-12-16T04:46:57.940Z,25.68
2018-12-16T04:49:25.263Z,25.80
2018-12-16T04:51:52.947Z,25.90
2018-12-16T04:54:20.668Z,24.47
2018-12-16T04:56:48.010Z,25.95
2018-12-16T04:59:15.955Z,25.08
2018-12-16T05:01:43.327Z,24.02
2018-12-16T05:04:11.025Z,24.43
2018-12-16T05:06:38.449Z,24.30
2018-12-16T05:09:07.287Z,25.68
2018-12-16T05:11:34.719Z,25.10
2018-12-16T05:14:02.420Z,25.88
2018-12-16T05:16:29.812Z,24.47
2018-12-16T05:18:57.139Z,25.75
2018-12-16T05:21:24.774Z,25.50
2018-12-16T05:23:52.495Z,25.60
2018-12-16T05:26:20.489Z,24.85
2018-12-16T05:28:48.970Z,25.75
2018-12-16T05:31:16.735Z,24.75
2018-12-16T05:33:44.398Z,24.90
2018-12-16T05:36:11.720Z,25.05
2018-12-16T05:38:39.087Z,24.77
2018-12-16T05:41:06.768Z,25.25
2018-12-16T05:43:34.071Z,25.60
2018-12-16T05:46:01.680Z,25.50
2018-12-16T05:48:29.541Z,25.33
2018-12-16T05:50:57.418Z,25.23
2018-12-16T05:53:25.086Z,25.52
2018-12-16T05:55:52.383Z,24.60
2018-12-16T05:58:19.992Z,25.08
2018-12-16T06:00:47.356Z,23.65
2018-12-16T06:03:14.751Z,23.55
2018-12-16T06:05:42.151Z,22.93
2018-12-16T06:08:09.500Z,22.80
2018-12-16T06:10:37.183Z,22.02
2018-12-16T06:13:04.827Z,22.67
2018-12-16T06:15:32.192Z,21.97
2018-12-16T06:18:00.322Z,21.70
2018-12-16T06:20:28.010Z,21.57
2018-12-16T06:22:55.765Z,21.62
2018-12-16T06:25:23.460Z,21.10
2018-12-16T06:27:51.334Z,21.20
2018-12-16T06:30:20.114Z,21.85
2018-12-16T06:32:47.462Z,21.27
2018-12-16T06:35:15.419Z,21.97
2018-12-16T06:37:42.778Z,21.27
2018-12-16T06:40:10.107Z,20.88
2018-12-16T06:42:37.714Z,27.07
2018-12-16T06:45:05.648Z,21.57
2018-12-16T06:47:33.002Z,21.97
2018-12-16T06:50:00.918Z,21.62
2018-12-16T06:52:28.571Z,21.85
2018-12-16T06:54:55.927Z,21.12
2018-12-16T06:57:23.384Z,21.60
2018-12-16T06:59:50.779Z,21.52
2018-12-16T07:02:18.381Z,21.30
2018-12-16T07:04:45.735Z,20.80
2018-12-16T07:07:13.366Z,21.20
2018-12-16T07:09:40.754Z,20.70
2018-12-16T07:12:08.441Z,20.10
2018-12-16T07:14:35.834Z,19.63
2018-12-16T07:17:04.435Z,19.73
2018-12-16T07:19:32.646Z,18.57
2018-12-16T07:22:00.519Z,16.85
2018-12-16T07:24:27.858Z,16.42
2018-12-16T07:26:55.531Z,15.30
2018-12-16T07:29:22.930Z,14.78
2018-12-16T07:31:50.332Z,14.45
2018-12-16T07:34:18.116Z,14.40
2018-12-16T07:36:45.874Z,14.17
2018-12-16T07:39:14.360Z,12.90
2018-12-16T07:41:42.021Z,13.72
2018-12-16T07:44:10.312Z,12.70
2018-12-16T07:46:37.961Z,11.80
2018-12-16T07:49:05.424Z,11.40
2018-12-16T07:51:33.284Z,11.57
2018-12-16T07:54:00.715Z,23.15
2018-12-16T07:56:28.079Z,11.73
2018-12-16T07:58:55.759Z,11.48
2018-12-16T08:01:23.094Z,11.07
2018-12-16T08:03:51.614Z,11.65
2018-12-16T08:06:18.939Z,11.47
2018-12-16T08:08:46.625Z,11.57
2018-12-16T08:11:13.919Z,11.73
2018-12-16T08:13:41.838Z,11.35
2018-12-16T08:16:09.187Z,11.20
2018-12-16T08:18:36.552Z,10.93
2018-12-16T08:21:04.231Z,10.93
2018-12-16T08:23:31.525Z,11.00
2018-12-16T08:25:59.006Z,10.23
2018-12-16T08:28:26.331Z,10.48
2018-12-16T08:30:53.795Z,11.80
2018-12-16T08:33:21.500Z,10.85
2018-12-16T08:35:48.870Z,10.10
2018-12-16T08:38:16.170Z,10.80
2018-12-16T08:40:43.730Z,10.93
2018-12-16T08:43:11.605Z,11.40
2018-12-16T08:45:38.912Z,10.90
2018-12-16T08:48:06.264Z,10.65
2018-12-16T08:50:33.868Z,11.00
2018-12-16T08:53:01.571Z,11.03
2018-12-16T08:55:28.908Z,10.40
2018-12-16T08:57:56.301Z,10.33
2018-12-16T09:00:23.655Z,11.40
2018-12-16T09:02:50.995Z,11.30
2018-12-16T09:05:19.380Z,10.93
2018-12-16T09:07:46.703Z,11.20
2018-12-16T09:10:14.391Z,11.00
2018-12-16T09:12:41.759Z,11.00
2018-12-16T09:15:09.822Z,10.65
2018-12-16T09:17:37.575Z,11.30
2018-12-16T09:20:05.492Z,11.40
2018-12-16T09:22:33.117Z,11.80
2018-12-16T09:25:00.779Z,11.35
2018-12-16T09:27:28.444Z,11.12
2018-12-16T09:29:56.042Z,12.80
2018-12-16T09:32:23.765Z,11.93
2018-12-16T09:34:51.640Z,11.70
2018-12-16T09:37:19.805Z,11.97
2018-12-16T09:39:47.672Z,12.65
2018-12-16T09:42:15.646Z,12.60
2018-12-16T09:44:43.509Z,12.78
2018-12-16T09:47:11.095Z,12.30
2018-12-16T09:49:38.628Z,12.40
2018-12-16T09:52:06.003Z,12.78
2018-12-16T09:54:33.647Z,12.63
2018-12-16T09:57:01.178Z,12.45
2018-12-16T09:59:28.524Z,12.75
2018-12-16T10:01:56.123Z,12.50
2018-12-16T10:04:23.792Z,13.10
2018-12-16T10:06:51.432Z,13.15
2018-12-16T10:09:19.521Z,12.70
2018-12-16T10:11:47.476Z,13.68
2018-12-16T10:14:15.674Z,13.45
2018-12-16T10:16:43.521Z,12.90
2018-12-16T10:19:11.447Z,13.00
2018-12-16T10:21:40.517Z,13.32
2018-12-16T10:24:08.484Z,13.38
2018-12-16T10:26:36.196Z,13.68
2018-12-16T10:29:03.851Z,13.50
2018-12-16T10:31:32.199Z,13.50
2018-12-16T10:34:00.132Z,14.28
2018-12-16T10:36:28.723Z,14.50
2018-12-16T10:38:56.568Z,13.17
2018-12-16T10:41:24.745Z,13.78
2018-12-16T10:43:52.808Z,14.10
2018-12-16T10:46:20.550Z,13.40
2018-12-16T10:49:04.683Z,13.00
2018-12-16T10:51:40.400Z,13.20
2018-12-16T10:54:23.459Z,13.33
2018-12-16T10:56:51.305Z,13.30
2018-12-16T10:59:19.432Z,13.30
2018-12-16T11:01:47.543Z,14.68
2018-12-16T11:04:15.763Z,13.55
2018-12-16T11:06:44.127Z,13.13
2018-12-16T11:09:12.301Z,13.50
2018-12-16T11:11:40.350Z,13.05
2018-12-16T11:14:08.947Z,12.55
2018-12-16T11:16:36.964Z,12.73
2018-12-16T11:19:05.199Z,12.68
2018-12-16T11:21:33.310Z,13.53
2018-12-16T11:24:02.068Z,13.60
2018-12-16T11:26:31.326Z,13.88
2018-12-16T11:28:59.450Z,13.30
2018-12-16T11:32:21.270Z,12.95
2018-12-16T11:34:49.682Z,12.40
2018-12-16T11:37:18.488Z,14.05
2018-12-16T11:39:46.190Z,14.35
2018-12-16T11:42:14.498Z,16.07
2018-12-16T11:44:42.707Z,14.85
2018-12-16T11:47:10.991Z,13.07
2018-12-16T11:49:39.243Z,14.33
2018-12-16T11:52:07.696Z,15.50
2018-12-16T11:54:35.776Z,14.27
2018-12-16T11:57:04.643Z,13.93
2018-12-16T11:59:32.977Z,13.33
2018-12-16T12:02:02.225Z,13.22
2018-12-16T12:04:32.004Z,19.62
2018-12-16T12:07:00.659Z,14.20
2018-12-16T12:09:28.953Z,14.70
2018-12-16T12:11:57.029Z,14.50
2018-12-16T12:14:25.210Z,13.50
2018-12-16T12:16:53.177Z,14.10
2018-12-16T12:19:21.067Z,13.80
2018-12-16T12:21:48.842Z,13.70
2018-12-16T12:24:16.464Z,12.30
2018-12-16T12:26:44.855Z,13.75
2018-12-16T12:29:12.809Z,12.90
2018-12-16T12:31:41.207Z,12.90
2018-12-16T12:34:10.492Z,13.25
2018-12-16T12:36:39.328Z,12.73
2018-12-16T12:39:08.006Z,12.95
2018-12-16T12:41:35.800Z,13.20
2018-12-16T12:44:03.687Z,13.58
2018-12-16T12:46:31.393Z,13.70
2018-12-16T12:48:59.349Z,14.40
2018-12-16T12:51:27.589Z,13.55
2018-12-16T12:53:55.689Z,13.60
2018-12-16T12:56:23.472Z,14.07
2018-12-16T12:58:51.422Z,14.00
2018-12-16T13:01:18.985Z,13.90
2018-12-16T13:03:46.884Z,14.20
2018-12-16T13:06:15.068Z,13.30
2018-12-16T13:08:43.625Z,14.03
2018-12-16T13:11:11.669Z,14.30
2018-12-16T13:13:39.629Z,14.18
2018-12-16T13:16:08.313Z,14.95
2018-12-16T13:18:35.884Z,14.40
2018-12-16T13:22:50.370Z,14.00
2018-12-16T13:25:23.562Z,14.60
2018-12-16T13:27:51.488Z,14.45
2018-12-16T13:30:19.143Z,14.90
2018-12-16T13:32:47.035Z,14.87
2018-12-16T13:38:10.384Z,15.45
2018-12-16T13:40:38.928Z,15.45
2018-12-16T13:43:06.672Z,15.70
2018-12-16T13:45:34.999Z,15.63
2018-12-16T13:48:02.676Z,15.10
2018-12-16T13:50:31.127Z,16.27
2018-12-16T13:52:59.223Z,16.80
2018-12-16T13:55:27.018Z,16.70
2018-12-16T13:57:55.179Z,16.80
2018-12-16T14:00:23.622Z,16.85
2018-12-16T14:02:52.395Z,16.60
2018-12-16T14:05:20.649Z,16.20
2018-12-16T14:07:49.567Z,16.30
2018-12-16T14:10:18.155Z,17.40
2018-12-16T14:12:46.798Z,16.00
2018-12-16T14:15:15.570Z,16.82
2018-12-16T14:17:45.659Z,16.82
2018-12-16T14:20:14.271Z,16.50
2018-12-16T14:22:42.505Z,16.35
2018-12-16T14:25:10.847Z,16.90
2018-12-16T14:27:39.010Z,17.30
2018-12-16T14:30:08.372Z,17.10
2018-12-16T14:32:36.963Z,16.50
2018-12-16T14:35:05.207Z,17.98
2018-12-16T14:37:33.708Z,17.95
2018-12-16T14:40:01.754Z,17.23
2018-12-16T14:42:30.556Z,19.70
2018-12-16T14:44:59.022Z,19.48
2018-12-16T14:47:26.958Z,18.82
2018-12-16T14:49:56.361Z,18.00
2018-12-16T14:52:25.605Z,17.75
2018-12-16T14:54:53.391Z,18.50
2018-12-16T14:57:21.268Z,18.47
2018-12-16T14:59:49.063Z,17.82
2018-12-16T15:02:16.806Z,18.10
2018-12-16T15:04:44.184Z,18.82
2018-12-16T15:07:11.805Z,19.17
2018-12-16T15:09:39.156Z,17.80
2018-12-16T15:12:06.488Z,18.53
2018-12-16T15:14:34.176Z,17.80
2018-12-16T15:17:01.842Z,17.95
2018-12-16T15:19:29.256Z,18.27
2018-12-16T15:21:56.898Z,18.62
2018-12-16T15:24:24.591Z,18.10
2018-12-16T15:26:52.728Z,18.48
2018-12-16T15:29:20.268Z,17.40
2018-12-16T15:31:47.575Z,18.12
2018-12-16T15:34:15.277Z,18.60
2018-12-16T15:36:42.630Z,18.35
2018-12-16T15:39:13.795Z,18.07
2018-12-16T15:41:42.514Z,18.27
2018-12-16T15:44:09.966Z,18.10
2018-12-16T15:46:37.779Z,18.20
2018-12-16T15:49:05.441Z,17.32
2018-12-16T15:51:33.155Z,17.20
2018-12-16T15:54:00.956Z,17.43
2018-12-16T15:56:28.344Z,18.32
2018-12-16T15:58:56.504Z,17.95
2018-12-16T16:01:24.148Z,18.02
2018-12-16T16:03:51.844Z,18.40
2018-12-16T16:06:19.905Z,18.10
2018-12-16T16:08:47.495Z,17.67
2018-12-16T16:11:15.119Z,17.17
2018-12-16T16:13:42.990Z,16.75
2018-12-16T16:16:10.370Z,17.30
2018-12-16T16:18:37.888Z,17.27
2018-12-16T16:21:05.572Z,16.45
2018-12-16T16:23:33.519Z,16.70
2018-12-16T16:26:01.264Z,16.70
2018-12-16T16:28:28.659Z,16.87
2018-12-16T16:30:56.637Z,17.12
2018-12-16T16:33:24.591Z,17.10
2018-12-16T16:35:52.466Z,17.42
2018-12-16T16:38:19.931Z,19.00
2018-12-16T16:40:47.680Z,25.45
2018-12-16T16:43:15.218Z,21.77
2018-12-16T16:45:43.423Z,28.02
2018-12-16T16:48:11.399Z,20.77
2018-12-16T16:52:56.139Z,17.70
2018-12-16T16:55:24.518Z,16.97
2018-12-16T16:57:52.722Z,17.00
2018-12-16T17:00:20.409Z,16.50
2018-12-16T17:02:48.048Z,16.48
2018-12-16T17:05:15.409Z,16.70
2018-12-16T17:07:42.808Z,16.43
2018-12-16T17:10:11.032Z,16.10
2018-12-16T17:12:38.432Z,16.55
2018-12-16T17:15:06.471Z,16.40
2018-12-16T17:17:33.816Z,15.50
2018-12-16T17:20:01.152Z,16.05
2018-12-16T17:22:28.518Z,16.27
2018-12-16T17:24:56.114Z,16.02
2018-12-16T17:27:23.759Z,15.58
2018-12-16T17:29:51.818Z,15.60
2018-12-16T17:32:19.198Z,15.88
2018-12-16T17:34:46.859Z,16.07
2018-12-16T17:37:14.508Z,15.55
2018-12-16T17:39:42.184Z,15.90
2018-12-16T17:42:10.855Z,16.27
2018-12-16T17:44:38.196Z,16.20
2018-12-16T17:47:05.568Z,15.23
2018-12-16T17:49:32.875Z,16.10
2018-12-16T17:52:00.175Z,19.92
2018-12-16T17:54:27.836Z,22.52
2018-12-16T17:56:55.265Z,18.80
2018-12-16T17:59:22.680Z,16.90
2018-12-16T18:01:50.920Z,15.40
2018-12-16T18:04:18.583Z,15.95
2018-12-16T18:06:46.887Z,15.88
2018-12-16T18:09:14.527Z,15.88
2018-12-16T18:11:41.957Z,19.70
2018-12-16T18:14:10.159Z,17.00
2018-12-16T18:16:37.509Z,18.60
2018-12-16T18:19:05.481Z,16.97
2018-12-16T18:21:32.860Z,16.20
2018-12-16T18:24:00.603Z,16.23
2018-12-16T18:26:28.256Z,15.58
2018-12-16T18:28:55.918Z,15.20
2018-12-16T18:31:23.268Z,15.15
2018-12-16T18:33:50.953Z,23.90
2018-12-16T18:36:18.609Z,17.35
2018-12-16T18:38:46.169Z,15.00
2018-12-16T18:41:13.836Z,14.95
2018-12-16T18:43:41.209Z,15.50
2018-12-16T18:46:09.277Z,15.40
2018-12-16T18:48:37.031Z,16.25
2018-12-16T18:51:04.629Z,15.10
2018-12-16T18:53:31.936Z,15.20
2018-12-16T18:55:59.987Z,14.78
2018-12-16T18:58:27.849Z,15.13
2018-12-16T19:00:55.429Z,15.05
2018-12-16T19:03:22.893Z,15.20
2018-12-16T19:05:50.772Z,14.53
2018-12-16T19:08:18.391Z,15.55
2018-12-16T19:10:46.091Z,14.50
2018-12-16T19:13:13.789Z,15.75
2018-12-16T19:15:41.122Z,14.95
2018-12-16T19:18:08.732Z,15.50
2018-12-16T19:20:36.357Z,15.00
2018-12-16T19:23:03.646Z,15.40
2018-12-16T19:25:31.206Z,15.13
2018-12-16T19:27:58.774Z,16.02
2018-12-16T19:30:26.370Z,15.10
2018-12-16T19:32:53.703Z,14.85
2018-12-16T19:35:21.264Z,15.00
2018-12-16T19:37:49.249Z,15.43
2018-12-16T19:40:16.587Z,15.58
2018-12-16T19:42:43.908Z,14.53
2018-12-16T19:45:11.211Z,15.13
2018-12-16T19:47:38.531Z,15.65
2018-12-16T19:50:06.620Z,14.75
2018-12-16T19:52:34.332Z,14.43
2018-12-16T19:55:02.132Z,14.98
2018-12-16T19:57:30.338Z,15.20
2018-12-16T19:59:57.700Z,23.92
2018-12-16T20:02:25.319Z,16.52
2018-12-16T20:04:58.818Z,14.15
2018-12-16T20:07:26.116Z,14.90
2018-12-16T20:09:53.780Z,14.40
2018-12-16T20:12:21.744Z,14.60
2018-12-16T20:14:49.414Z,14.20
2018-12-16T20:17:19.264Z,14.10
2018-12-16T20:19:46.847Z,14.70
2018-12-16T20:22:14.452Z,13.65
2018-12-16T20:24:41.807Z,13.60
2018-12-16T20:27:12.120Z,14.10
2018-12-16T20:29:38.560Z,14.10
2018-12-16T20:32:06.114Z,13.60
2018-12-16T20:34:33.432Z,13.65
2018-12-16T20:37:00.775Z,13.98
2018-12-16T20:39:28.138Z,12.95
2018-12-16T20:41:55.739Z,14.30
2018-12-16T20:44:23.023Z,13.45
2018-12-16T20:46:50.980Z,14.00
2018-12-16T20:49:18.700Z,14.03
2018-12-16T20:51:46.349Z,14.20
2018-12-16T20:54:14.177Z,14.10
2018-12-16T20:56:42.061Z,14.13
2018-12-16T20:59:09.792Z,13.50
2018-12-16T21:01:37.522Z,13.65
2018-12-16T21:04:05.086Z,13.80
2018-12-16T21:06:32.793Z,14.18
2018-12-16T21:09:00.679Z,13.90
2018-12-16T21:11:33.422Z,13.80
2018-12-16T21:14:06.624Z,13.73
2018-12-16T21:16:39.448Z,13.38
2018-12-16T21:19:06.881Z,14.25
2018-12-16T21:21:34.751Z,14.00
2018-12-16T21:24:02.894Z,14.00
2018-12-16T21:26:30.501Z,13.60
2018-12-16T21:28:57.852Z,14.60
2018-12-16T21:31:25.398Z,14.23
2018-12-16T21:33:53.089Z,14.47
2018-12-16T21:36:20.664Z,13.40
2018-12-16T21:38:47.993Z,13.58
2018-12-16T21:41:15.369Z,14.43
2018-12-16T21:45:43.927Z,14.05
2018-12-16T21:48:11.576Z,14.30
2018-12-16T21:50:39.200Z,14.20
2018-12-16T21:53:06.507Z,13.70
2018-12-16T21:55:33.879Z,13.80
2018-12-16T21:58:01.309Z,14.00
2018-12-16T22:00:28.629Z,14.47
2018-12-16T22:02:56.374Z,14.15
2018-12-16T22:05:32.492Z,14.63
2018-12-16T22:08:00.676Z,14.90
2018-12-16T22:10:28.080Z,14.20
2018-12-16T22:12:55.886Z,14.50
2018-12-16T22:15:23.161Z,14.87
2018-12-16T22:17:50.737Z,14.80
2018-12-16T22:20:18.047Z,14.75
2018-12-16T22:22:45.359Z,15.45
2018-12-16T22:25:12.646Z,15.08
2018-12-16T22:27:40.300Z,14.98
2018-12-16T22:30:08.903Z,14.98
2018-12-16T22:32:36.222Z,14.90
2018-12-16T22:35:03.670Z,14.63
2018-12-16T22:37:31.581Z,15.25
2018-12-16T22:39:59.263Z,14.60
2018-12-16T22:42:26.904Z,14.98
2018-12-16T22:44:54.535Z,14.40
2018-12-16T22:47:22.747Z,15.90
2018-12-16T22:49:50.096Z,15.70
2018-12-16T22:52:18.174Z,14.65
2018-12-16T22:54:46.051Z,15.00
2018-12-16T22:57:14.007Z,14.95
2018-12-16T22:59:45.721Z,15.10
2018-12-16T23:02:13.152Z,14.80
2018-12-16T23:04:40.477Z,15.20
2018-12-16T23:07:08.030Z,14.38
2018-12-16T23:09:35.700Z,14.85
2018-12-16T23:12:03.392Z,14.98
2018-12-16T23:14:31.326Z,14.53
2018-12-16T23:16:58.992Z,14.75
2018-12-16T23:19:26.552Z,14.80
2018-12-16T23:21:54.211Z,14.50
2018-12-16T23:24:22.179Z,14.13
2018-12-16T23:26:49.844Z,14.70
2018-12-16T23:29:17.150Z,14.73
2018-12-16T23:31:46.151Z,15.90
2018-12-16T23:34:13.442Z,15.13
2018-12-16T23:36:41.091Z,15.60
2018-12-16T23:39:09.712Z,14.90
2018-12-16T23:41:37.072Z,15.58
2018-12-16T23:44:04.713Z,15.05
2018-12-16T23:46:32.667Z,15.55
2018-12-16T23:49:00.027Z,15.13
2018-12-16T23:51:27.866Z,15.48
2018-12-16T23:53:55.521Z,14.25
2018-12-16T23:56:23.430Z,14.25
2018-12-16T23:58:50.842Z,14.87
